| time (UTC) | temp F | wind direction | speed MPH | gust MPH | rain 1hr in | rain 24hr in | rain mn in | humidity % | barometer mb |
| 20260905001510 | 68 | 294 | 0.0 | 0.0 | 0.00 | 0.01 | 0.01 | 69 | 1005.8 |
| 20260905000007 | 69 | 295 | 2.0 | 7.0 | 0.00 | 0.01 | 0.01 | 68 | 1006.0 |
| 20260904234506 | 69 | 330 | 3.0 | 8.0 | 0.00 | 0.01 | 0.01 | 67 | 1005.8 |
| 20260904233006 | 70 | 322 | 1.0 | 6.0 | 0.00 | 0.01 | 0.01 | 66 | 1005.7 |
| 20260904231509 | 71 | 320 | 3.0 | 10.0 | 0.00 | 0.01 | 0.01 | 64 | 1005.5 |
| 20260904230010 | 72 | 338 | 1.0 | 6.0 | 0.00 | 0.01 | 0.01 | 63 | 1005.4 |
| 20260904224504 | 73 | 337 | 4.0 | 7.0 | 0.00 | 0.01 | 0.01 | 62 | 1005.3 |
| 20260904223004 | 74 | 300 | 4.0 | 11.0 | 0.00 | 0.01 | 0.01 | 60 | 1005.2 |
| 20260904221503 | 75 | 297 | 1.0 | 8.0 | 0.00 | 0.01 | 0.01 | 57 | 1005.2 |
| 20260904220002 | 77 | 259 | 3.0 | 9.0 | 0.00 | 0.01 | 0.01 | 56 | 1005.2 |
| 20260904214502 | 78 | 275 | 5.0 | 14.0 | 0.00 | 0.01 | 0.01 | 56 | 1005.1 |
| 20260904213002 | 78 | 292 | 5.0 | 12.0 | 0.00 | 0.01 | 0.01 | 53 | 1005.1 |
| 20260904211504 | 78 | 319 | 4.0 | 12.0 | 0.00 | 0.01 | 0.01 | 54 | 1005.1 |
| 20260904204602 | 79 | 299 | 5.0 | 12.0 | 0.00 | 0.01 | 0.01 | 50 | 1004.9 |
| 20260904203100 | 79 | 242 | 4.0 | 13.0 | 0.00 | 0.01 | 0.01 | 53 | 1005.0 |
| 20260904201559 | 77 | 285 | 3.0 | 8.0 | 0.00 | 0.01 | 0.01 | 61 | 1005.0 |
| 20260904201500 | 77 | 265 | 2.0 | 8.0 | 0.00 | 0.01 | 0.01 | 58 | 1005.0 |
| 20260904200112 | 77 | 323 | 3.0 | 7.0 | 0.00 | 0.01 | 0.01 | 57 | 1005.1 |
| 20260904194556 | 77 | 10 | 5.0 | 10.0 | 0.00 | 0.01 | 0.01 | 60 | 1005.1 |
| 20260904193057 | 78 | 315 | 5.0 | 12.0 | 0.00 | 0.01 | 0.01 | 55 | 1005.2 |
| 20260904191556 | 79 | 342 | 3.0 | 10.0 | 0.00 | 0.01 | 0.01 | 56 | 1005.2 |
| 20260904190056 | 79 | 297 | 5.0 | 12.0 | 0.00 | 0.01 | 0.01 | 56 | 1005.2 |
| 20260904184554 | 79 | 303 | 5.0 | 14.0 | 0.00 | 0.01 | 0.01 | 55 | 1005.2 |
| 20260904183054 | 80 | 313 | 4.0 | 12.0 | 0.00 | 0.01 | 0.01 | 51 | 1005.3 |
| 20260904181552 | 81 | 336 | 4.0 | 10.0 | 0.00 | 0.01 | 0.01 | 51 | 1005.2 |
| 20260904180051 | 81 | 331 | 3.0 | 12.0 | 0.00 | 0.01 | 0.01 | 51 | 1005.2 |
| 20260904174548 | 80 | 284 | 4.0 | 11.0 | 0.00 | 0.01 | 0.01 | 55 | 1005.2 |
| 20260904173059 | 79 | 325 | 6.0 | 13.0 | 0.00 | 0.01 | 0.01 | 51 | 1005.5 |
| 20260904171547 | 79 | 310 | 4.0 | 16.0 | 0.00 | 0.01 | 0.01 | 56 | 1005.4 |
| 20260904170041 | 78 | 284 | 6.0 | 12.0 | 0.00 | 0.01 | 0.01 | 57 | 1005.7 |
| 20260904164536 | 77 | 243 | 6.0 | 16.0 | 0.00 | 0.01 | 0.01 | 59 | 1005.8 |
| 20260904163034 | 76 | 277 | 4.0 | 10.0 | 0.00 | 0.01 | 0.01 | 62 | 1005.6 |
| 20260904161534 | 76 | 340 | 4.0 | 10.0 | 0.00 | 0.01 | 0.01 | 63 | 1005.8 |
| 20260904160043 | 76 | 308 | 5.0 | 10.0 | 0.00 | 0.01 | 0.01 | 64 | 1005.9 |
| 20260904154531 | 77 | 319 | 2.0 | 10.0 | 0.00 | 0.01 | 0.01 | 66 | 1006.2 |
| 20260904153029 | 76 | 250 | 4.0 | 12.0 | 0.00 | 0.01 | 0.01 | 66 | 1006.1 |
| 20260904151525 | 75 | 309 | 3.0 | 11.0 | 0.00 | 0.01 | 0.01 | 72 | 1006.1 |
| 20260904150021 | 73 | 317 | 6.0 | 10.0 | 0.00 | 0.01 | 0.01 | 79 | 1006.2 |
| 20260904144516 | 71 | 263 | 3.0 | 8.0 | 0.00 | 0.01 | 0.01 | 85 | 1006.3 |
| 20260904143012 | 69 | 319 | 5.0 | 11.0 | 0.00 | 0.01 | 0.01 | 93 | 1006.4 |
| 20260904141507 | 68 | 279 | 2.0 | 7.0 | 0.00 | 0.01 | 0.01 | 95 | 1006.4 |
| 20260904140004 | 66 | 269 | 2.0 | 5.0 | 0.00 | 0.01 | 0.01 | 96 | 1006.5 |
| 20260904134502 | 66 | 298 | 1.0 | 5.0 | 0.00 | 0.01 | 0.01 | 96 | 1006.5 |
| 20260904133002 | 65 | 286 | 0.0 | 4.0 | 0.00 | 0.01 | 0.01 | 96 | 1006.5 |
| 20260904131603 | 64 | 276 | 0.0 | 2.0 | 0.00 | 0.01 | 0.01 | 96 | 1006.5 |
| 20260904130059 | 63 | 277 | 0.0 | 2.0 | 0.00 | 0.01 | 0.01 | 96 | 1006.5 |
| 20260904124604 | 63 | 277 | 0.0 | 2.0 | 0.00 | 0.01 | 0.01 | 96 | 1006.4 |
| 20260904123100 | 62 | 333 | 0.0 | 2.0 | 0.00 | 0.01 | 0.01 | 96 | 1006.4 |
| 20260904121555 | 61 | 333 | 0.0 | 0.0 | 0.00 | 0.01 | 0.01 | 96 | 1006.4 |
| 20260904120054 | 61 | 333 | 0.0 | 0.0 | 0.00 | 0.01 | 0.01 | 96 | 1006.3 |
| 20260904114552 | 61 | 333 | 0.0 | 0.0 | 0.00 | 0.01 | 0.01 | 96 | 1006.5 |
| 20260904113051 | 60 | 333 | 0.0 | 0.0 | 0.00 | 0.01 | 0.01 | 96 | 1006.4 |
| 20260904111550 | 60 | 333 | 0.0 | 0.0 | 0.00 | 0.01 | 0.01 | 96 | 1006.3 |
| 20260904110048 | 59 | 333 | 0.0 | 0.0 | 0.00 | 0.01 | 0.01 | 95 | 1006.3 |
| 20260904104545 | 60 | 333 | 0.0 | 0.0 | 0.01 | 0.01 | 0.01 | 95 | 1006.1 |
| 20260904103044 | 60 | 333 | 0.0 | 0.0 | 0.01 | 0.01 | 0.01 | 95 | 1006.0 |
| 20260904101542 | 60 | 333 | 0.0 | 0.0 | 0.01 | 0.01 | 0.01 | 95 | 1005.9 |
| 20260904100044 | 60 | 333 | 0.0 | 0.0 | 0.01 | 0.01 | 0.01 | 95 | 1005.9 |
| 20260904094552 | 61 | 333 | 0.0 | 0.0 | 0.00 | 0.01 | 0.00 | 95 | 1005.9 |
| 20260904093040 | 61 | 333 | 0.0 | 0.0 | 0.00 | 0.01 | 0.00 | 95 | 1005.9 |
| 20260904091539 | 61 | 333 | 0.0 | 0.0 | 0.00 | 0.01 | 0.00 | 95 | 1005.9 |
| 20260904090048 | 60 | 333 | 0.0 | 0.0 | 0.00 | 0.01 | 0.00 | 95 | 1005.9 |
| 20260904084537 | 61 | 333 | 0.0 | 0.0 | 0.00 | 0.01 | 0.00 | 95 | 1005.9 |
| 20260904083104 | 61 | 333 | 0.0 | 0.0 | 0.00 | 0.01 | 0.00 | 95 | 1005.9 |
| 20260904081533 | 62 | 333 | 0.0 | 0.0 | 0.00 | 0.01 | 0.00 | 95 | 1006.0 |
| 20260904080029 | 62 | 333 | 0.0 | 0.0 | 0.00 | 0.02 | 0.00 | 95 | 1006.2 |
| 20260904074531 | 62 | 333 | 0.0 | 0.0 | 0.00 | 0.02 | 0.00 | 95 | 1006.3 |
| 20260904073027 | 62 | 333 | 0.0 | 0.0 | 0.00 | 0.02 | 0.00 | 95 | 1006.2 |
| 20260904071526 | 62 | 333 | 0.0 | 0.0 | 0.00 | 0.02 | 0.00 | 95 | 1006.4 |
| 20260904070046 | 62 | 333 | 0.0 | 0.0 | 0.00 | 0.02 | 0.00 | 95 | 1006.5 |
| 20260904064524 | 62 | 333 | 0.0 | 1.0 | 0.00 | 0.02 | 0.00 | 95 | 1006.5 |
| 20260904063028 | 62 | 51 | 0.0 | 0.0 | 0.00 | 0.02 | 0.00 | 95 | 1006.5 |
| 20260904061526 | 63 | 53 | 0.0 | 0.0 | 0.00 | 0.02 | 0.00 | 94 | 1006.7 |
| 20260904060018 | 63 | 112 | 0.0 | 0.0 | 0.00 | 0.02 | 0.00 | 94 | 1007.0 |
| 20260904054515 | 64 | 112 | 0.0 | 0.0 | 0.00 | 0.02 | 0.00 | 95 | 1007.3 |
| 20260904053033 | 64 | 112 | 0.0 | 0.0 | 0.00 | 0.02 | 0.00 | 94 | 1007.5 |
| 20260904051522 | 65 | 112 | 0.0 | 0.0 | 0.00 | 0.02 | 0.00 | 95 | 1007.5 |
| 20260904050009 | 65 | 112 | 0.0 | 0.0 | 0.00 | 0.02 | 0.00 | 95 | 1007.5 |
| 20260904044508 | 65 | 114 | 0.0 | 0.0 | 0.00 | 0.02 | 0.00 | 95 | 1007.5 |
| 20260904043007 | 66 | 113 | 0.0 | 0.0 | 0.00 | 0.02 | 0.00 | 95 | 1007.5 |
| 20260904041505 | 66 | 113 | 0.0 | 0.0 | 0.00 | 0.02 | 0.00 | 95 | 1007.7 |
| 20260904040004 | 66 | 114 | 0.0 | 0.0 | 0.00 | 0.02 | 0.02 | 94 | 1007.9 |
| 20260904034503 | 66 | 114 | 0.0 | 0.0 | 0.00 | 0.02 | 0.02 | 94 | 1007.9 |
| 20260904033003 | 67 | 114 | 0.0 | 0.0 | 0.00 | 0.02 | 0.02 | 94 | 1008.0 |
| 20260904031502 | 67 | 111 | 0.0 | 0.0 | 0.00 | 0.02 | 0.02 | 94 | 1008.0 |
| 20260904030002 | 67 | 111 | 0.0 | 0.0 | 0.00 | 0.02 | 0.02 | 94 | 1008.3 |
| 20260904024502 | 67 | 111 | 0.0 | 0.0 | 0.00 | 0.02 | 0.02 | 94 | 1008.1 |
| 20260904023100 | 67 | 113 | 0.0 | 0.0 | 0.00 | 0.02 | 0.02 | 94 | 1008.1 |
| 20260904023001 | 67 | 113 | 0.0 | 0.0 | 0.00 | 0.02 | 0.02 | 94 | 1008.1 |
| 20260904021601 | 67 | 112 | 1.0 | 4.0 | 0.00 | 0.02 | 0.02 | 93 | 1008.2 |
| 20260904020100 | 68 | 123 | 2.0 | 5.0 | 0.00 | 0.02 | 0.02 | 93 | 1008.3 |
| 20260904014608 | 68 | 111 | 1.0 | 7.0 | 0.00 | 0.02 | 0.02 | 93 | 1008.6 |
| 20260904013059 | 68 | 148 | 4.0 | 8.0 | 0.00 | 0.02 | 0.02 | 93 | 1008.5 |
| 20260904011559 | 68 | 107 | 3.0 | 6.0 | 0.00 | 0.02 | 0.02 | 93 | 1008.5 |
| 20260904010057 | 68 | 131 | 0.0 | 7.0 | 0.00 | 0.02 | 0.02 | 93 | 1008.6 |
| 20260904004557 | 68 | 126 | 2.0 | 7.0 | 0.00 | 0.02 | 0.02 | 92 | 1008.1 |
| 20260904003057 | 68 | 123 | 0.0 | 6.0 | 0.00 | 0.02 | 0.02 | 92 | 1008.1 |